Time,TemperatureF,DewpointF,PressureIn,WindDirection,WindDirectionDegrees,WindSpeedMPH,WindSpeedGustMPH,Humidity,HourlyPrecipIn,Conditions,Clouds,dailyrainin,SoftwareType,DateUTC
2013-09-07 00:11:00,80.7,67.0,29.94,SSE,156,2.0,5.0,64,0.00,,,0.00,weatherlink.com 1.10,2013-09-07 05:11:00,
2013-09-07 00:26:00,80.5,68.0,29.94,SSE,164,1.0,4.0,65,0.00,,,0.00,weatherlink.com 1.10,2013-09-07 05:26:00,
2013-09-07 00:41:00,80.1,68.0,29.94,SSE,149,1.0,5.0,66,0.00,,,0.00,weatherlink.com 1.10,2013-09-07 05:41:00,
2013-09-07 00:56:00,79.8,68.0,29.94,ENE,71,2.0,5.0,68,0.00,,,0.00,weatherlink.com 1.10,2013-09-07 05:56:00,
2013-09-07 01:11:00,79.4,68.0,29.94,NE,53,0.0,3.0,69,0.00,,,0.00,weatherlink.com 1.10,2013-09-07 06:11:00,
2013-09-07 01:26:00,79.0,68.0,29.94,NE,53,1.0,2.0,70,0.00,,,0.00,weatherlink.com 1.10,2013-09-07 06:26:00,
2013-09-07 01:41:00,78.8,69.0,29.94,NE,53,1.0,2.0,72,0.00,,,0.00,weatherlink.com 1.10,2013-09-07 06:41:00,
2013-09-07 01:56:00,78.6,69.0,29.93,NE,53,1.0,2.0,72,0.00,,,0.00,weatherlink.com 1.10,2013-09-07 06:56:00,
2013-09-07 02:12:00,78.5,69.0,29.94,NE,53,0.0,2.0,72,0.00,,,0.00,weatherlink.com 1.10,2013-09-07 07:12:00,
2013-09-07 02:26:00,78.1,68.0,29.94,NE,53,0.0,0.0,72,0.00,,,0.00,weatherlink.com 1.10,2013-09-07 07:26:00,
2013-09-07 02:41:00,77.7,68.0,29.93,ESE,108,2.0,3.0,72,0.00,,,0.00,weatherlink.com 1.10,2013-09-07 07:41:00,
2013-09-07 02:56:00,77.0,68.0,29.93,ESE,110,1.0,3.0,74,0.00,,,0.00,weatherlink.com 1.10,2013-09-07 07:56:00,
2013-09-07 03:11:00,76.0,68.0,29.93,ESE,110,2.0,3.0,76,0.00,,,0.00,weatherlink.com 1.10,2013-09-07 08:11:00,
2013-09-07 03:27:00,75.4,68.0,29.93,ESE,110,1.0,2.0,77,0.00,,,0.00,weatherlink.com 1.10,2013-09-07 08:27:00,
2013-09-07 03:42:00,74.9,68.0,29.93,East,97,1.0,3.0,79,0.00,,,0.00,weatherlink.com 1.10,2013-09-07 08:42:00,
2013-09-07 03:57:00,74.0,67.0,29.93,ESE,122,2.0,3.0,79,0.00,,,0.00,weatherlink.com 1.10,2013-09-07 08:57:00,
2013-09-07 04:12:00,73.2,67.0,29.93,SE,132,2.0,3.0,81,0.00,,,0.00,weatherlink.com 1.10,2013-09-07 09:12:00,
2013-09-07 04:27:00,73.0,68.0,29.93,ESE,110,3.0,3.0,83,0.00,,,0.00,weatherlink.com 1.10,2013-09-07 09:27:00,
2013-09-07 04:42:00,73.0,67.0,29.93,SE,133,2.0,3.0,82,0.00,,,0.00,weatherlink.com 1.10,2013-09-07 09:42:00,
2013-09-07 04:57:00,72.7,67.0,29.93,SE,127,1.0,4.0,83,0.00,,,0.00,weatherlink.com 1.10,2013-09-07 09:57:00,
2013-09-07 05:12:00,72.5,67.0,29.93,SE,128,2.0,3.0,84,0.00,,,0.00,weatherlink.com 1.10,2013-09-07 10:12:00,
2013-09-07 05:27:00,72.1,67.0,29.94,SE,136,3.0,4.0,84,0.00,,,0.00,weatherlink.com 1.10,2013-09-07 10:27:00,
2013-09-07 05:42:00,72.1,67.0,29.94,SE,127,2.0,3.0,85,0.00,,,0.00,weatherlink.com 1.10,2013-09-07 10:42:00,
2013-09-07 05:57:00,72.3,67.0,29.94,SE,128,2.0,3.0,84,0.00,,,0.00,weatherlink.com 1.10,2013-09-07 10:57:00,
2013-09-07 06:12:00,72.3,68.0,29.94,ESE,112,3.0,3.0,86,0.00,,,0.00,weatherlink.com 1.10,2013-09-07 11:12:00,
2013-09-07 06:27:00,71.8,67.0,29.94,ESE,105,2.0,4.0,85,0.00,,,0.00,weatherlink.com 1.10,2013-09-07 11:27:00,
2013-09-07 06:42:00,71.5,67.0,29.95,ESE,105,3.0,3.0,86,0.00,,,0.00,weatherlink.com 1.10,2013-09-07 11:42:00,
2013-09-07 06:57:00,71.3,67.0,29.95,ESE,113,2.0,3.0,86,0.00,,,0.00,weatherlink.com 1.10,2013-09-07 11:57:00,
2013-09-07 07:12:00,71.3,67.0,29.95,East,96,2.0,3.0,87,0.00,,,0.00,weatherlink.com 1.10,2013-09-07 12:12:00,
2013-09-07 07:27:00,71.5,68.0,29.95,East,96,0.0,2.0,87,0.00,,,0.00,weatherlink.com 1.10,2013-09-07 12:27:00,
2013-09-07 07:42:00,71.6,68.0,29.96,East,96,1.0,2.0,87,0.00,,,0.00,weatherlink.com 1.10,2013-09-07 12:42:00,
2013-09-07 07:57:00,72.3,68.0,29.96,East,96,1.0,2.0,86,0.00,,,0.00,weatherlink.com 1.10,2013-09-07 12:57:00,
2013-09-07 08:12:00,73.5,68.0,29.97,East,86,2.0,3.0,84,0.00,,,0.00,weatherlink.com 1.10,2013-09-07 13:12:00,
2013-09-07 08:27:00,74.9,69.0,29.97,East,98,3.0,4.0,83,0.00,,,0.00,weatherlink.com 1.10,2013-09-07 13:27:00,
2013-09-07 08:43:00,76.7,70.0,29.97,East,94,3.0,5.0,79,0.00,,,0.00,weatherlink.com 1.10,2013-09-07 13:43:00,
2013-09-07 08:57:00,78.5,70.0,29.98,SSW,202,1.0,6.0,76,0.00,,,0.00,weatherlink.com 1.10,2013-09-07 13:57:00,
2013-09-07 09:12:00,79.8,70.0,29.98,SW,228,2.0,4.0,73,0.00,,,0.00,weatherlink.com 1.10,2013-09-07 14:12:00,
2013-09-07 09:27:00,80.7,71.0,29.98,West,277,2.0,5.0,72,0.00,,,0.00,weatherlink.com 1.10,2013-09-07 14:27:00,
2013-09-07 09:42:00,81.1,71.0,29.98,West,275,2.0,3.0,71,0.00,,,0.00,weatherlink.com 1.10,2013-09-07 14:42:00,
2013-09-07 09:57:00,81.6,71.0,29.98,WNW,288,3.0,5.0,70,0.00,,,0.00,weatherlink.com 1.10,2013-09-07 14:57:00,
2013-09-07 10:12:00,81.8,71.0,29.98,WNW,300,3.0,6.0,70,0.00,,,0.00,weatherlink.com 1.10,2013-09-07 15:12:00,
2013-09-07 10:27:00,82.0,71.0,29.98,WNW,286,2.0,5.0,69,0.00,,,0.00,weatherlink.com 1.10,2013-09-07 15:27:00,
2013-09-07 10:42:00,83.0,71.0,29.98,West,279,3.0,4.0,68,0.00,,,0.00,weatherlink.com 1.10,2013-09-07 15:42:00,
2013-09-07 10:57:00,84.1,71.0,29.98,WNW,299,1.0,5.0,65,0.00,,,0.00,weatherlink.com 1.10,2013-09-07 15:57:00,
2013-09-07 11:12:00,85.9,71.0,29.98,West,266,6.0,6.0,61,0.00,,,0.00,weatherlink.com 1.10,2013-09-07 16:12:00,
2013-09-07 11:27:00,85.5,71.0,29.98,WNW,282,5.0,7.0,63,0.00,,,0.00,weatherlink.com 1.10,2013-09-07 16:27:00,
2013-09-07 11:42:00,87.0,70.0,29.98,WNW,286,5.0,5.0,58,0.00,,,0.00,weatherlink.com 1.10,2013-09-07 16:42:00,
2013-09-07 11:57:00,87.2,70.0,29.97,WNW,284,4.0,4.0,56,0.00,,,0.00,weatherlink.com 1.10,2013-09-07 16:57:00,
2013-09-07 12:12:00,88.8,65.0,29.97,ENE,73,2.0,7.0,46,0.00,,,0.00,weatherlink.com 1.10,2013-09-07 17:12:00,
2013-09-07 12:27:00,90.3,68.0,29.96,West,279,4.0,5.0,48,0.00,,,0.00,weatherlink.com 1.10,2013-09-07 17:27:00,
2013-09-07 12:43:00,88.6,69.0,29.96,West,277,4.0,5.0,52,0.00,,,0.00,weatherlink.com 1.10,2013-09-07 17:43:00,
2013-09-07 12:58:00,89.9,67.0,29.95,NNE,29,5.0,6.0,47,0.00,,,0.00,weatherlink.com 1.10,2013-09-07 17:58:00,
2013-09-07 13:13:00,89.5,69.0,29.95,NNW,342,2.0,5.0,51,0.00,,,0.00,weatherlink.com 1.10,2013-09-07 18:13:00,
2013-09-07 13:28:00,90.7,67.0,29.94,ENE,78,3.0,5.0,46,0.00,,,0.00,weatherlink.com 1.10,2013-09-07 18:28:00,
2013-09-07 13:43:00,91.8,65.0,29.93,East,101,1.0,7.0,41,0.00,,,0.00,weatherlink.com 1.10,2013-09-07 18:43:00,
2013-09-07 13:58:00,94.0,63.0,29.93,SSE,167,5.0,9.0,36,0.00,,,0.00,weatherlink.com 1.10,2013-09-07 18:58:00,
2013-09-07 14:13:00,92.9,63.0,29.91,ESE,109,2.0,15.0,37,0.00,,,0.00,weatherlink.com 1.10,2013-09-07 19:13:00,
2013-09-07 14:29:00,92.9,63.0,29.91,East,86,8.0,10.0,37,0.00,,,0.00,weatherlink.com 1.10,2013-09-07 19:29:00,
2013-09-07 14:43:00,94.3,63.0,29.90,SW,221,5.0,9.0,35,0.00,,,0.00,weatherlink.com 1.10,2013-09-07 19:43:00,
2013-09-07 14:58:00,93.8,62.0,29.89,SSW,203,5.0,16.0,35,0.00,,,0.00,weatherlink.com 1.10,2013-09-07 19:58:00,
2013-09-07 15:13:00,92.5,62.0,29.88,ENE,77,8.0,13.0,36,0.00,,,0.00,weatherlink.com 1.10,2013-09-07 20:13:00,
2013-09-07 15:28:00,91.4,62.0,29.87,East,91,7.0,11.0,38,0.00,,,0.00,weatherlink.com 1.10,2013-09-07 20:28:00,
2013-09-07 15:43:00,91.8,60.0,29.86,ESE,109,3.0,13.0,34,0.00,,,0.00,weatherlink.com 1.10,2013-09-07 20:43:00,
2013-09-07 15:58:00,92.3,61.0,29.86,East,86,6.0,9.0,35,0.00,,,0.00,weatherlink.com 1.10,2013-09-07 20:58:00,
2013-09-07 16:13:00,93.8,61.0,29.85,ESE,104,2.0,9.0,33,0.00,,,0.00,weatherlink.com 1.10,2013-09-07 21:13:00,
2013-09-07 16:28:00,94.5,60.0,29.84,ESE,105,10.0,13.0,32,0.00,,,0.00,weatherlink.com 1.10,2013-09-07 21:28:00,
2013-09-07 16:43:00,94.0,60.0,29.84,East,99,8.0,11.0,32,0.00,,,0.00,weatherlink.com 1.10,2013-09-07 21:43:00,
2013-09-07 16:58:00,94.3,59.0,29.84,SSE,150,5.0,9.0,31,0.00,,,0.00,weatherlink.com 1.10,2013-09-07 21:58:00,
2013-09-07 17:13:00,94.7,60.0,29.84,SE,142,1.0,10.0,31,0.00,,,0.00,weatherlink.com 1.10,2013-09-07 22:13:00,
2013-09-07 17:28:00,94.7,60.0,29.84,SE,136,5.0,9.0,31,0.00,,,0.00,weatherlink.com 1.10,2013-09-07 22:28:00,
2013-09-07 17:43:00,94.3,59.0,29.84,ESE,120,7.0,13.0,31,0.00,,,0.00,weatherlink.com 1.10,2013-09-07 22:43:00,
2013-09-07 17:58:00,93.8,60.0,29.84,East,90,9.0,15.0,32,0.00,,,0.00,weatherlink.com 1.10,2013-09-07 22:58:00,
2013-09-07 18:13:00,93.6,59.0,29.84,East,98,7.0,12.0,31,0.00,,,0.00,weatherlink.com 1.10,2013-09-07 23:13:00,
2013-09-07 18:28:00,93.4,59.0,29.85,East,96,14.0,15.0,32,0.00,,,0.00,weatherlink.com 1.10,2013-09-07 23:28:00,
2013-09-07 18:43:00,92.9,61.0,29.84,East,95,9.0,13.0,34,0.00,,,0.00,weatherlink.com 1.10,2013-09-07 23:43:00,
2013-09-07 18:58:00,91.6,67.0,29.86,SW,218,8.0,18.0,44,0.00,,,0.00,weatherlink.com 1.10,2013-09-07 23:58:00,
2013-09-07 19:13:00,85.5,67.0,29.87,SSE,163,12.0,20.0,55,0.00,,,0.00,weatherlink.com 1.10,2013-09-08 00:13:00,
2013-09-07 19:28:00,84.1,68.0,29.87,SSW,194,3.0,11.0,58,0.00,,,0.00,weatherlink.com 1.10,2013-09-08 00:28:00,
2013-09-07 19:43:00,83.0,67.0,29.88,ESE,109,5.0,11.0,59,0.00,,,0.00,weatherlink.com 1.10,2013-09-08 00:43:00,
2013-09-07 19:58:00,82.0,65.0,29.89,SSE,155,5.0,13.0,56,0.00,,,0.00,weatherlink.com 1.10,2013-09-08 00:58:00,
2013-09-07 20:13:00,81.6,64.0,29.89,East,97,3.0,10.0,55,0.00,,,0.00,weatherlink.com 1.10,2013-09-08 01:13:00,
2013-09-07 20:28:00,81.2,63.0,29.90,ESE,115,3.0,13.0,55,0.00,,,0.00,weatherlink.com 1.10,2013-09-08 01:28:00,
2013-09-07 20:43:00,80.7,63.0,29.90,East,80,1.0,8.0,56,0.00,,,0.00,weatherlink.com 1.10,2013-09-08 01:43:00,
2013-09-07 20:58:00,80.1,64.0,29.90,East,95,2.0,7.0,58,0.00,,,0.00,weatherlink.com 1.10,2013-09-08 01:58:00,
2013-09-07 21:13:00,79.8,64.0,29.91,ESE,121,3.0,5.0,59,0.00,,,0.00,weatherlink.com 1.10,2013-09-08 02:13:00,
2013-09-07 21:28:00,79.2,65.0,29.91,SW,215,1.0,3.0,61,0.00,,,0.00,weatherlink.com 1.10,2013-09-08 02:28:00,
2013-09-07 21:43:00,78.8,65.0,29.90,SW,217,1.0,3.0,62,0.00,,,0.00,weatherlink.com 1.10,2013-09-08 02:43:00,
2013-09-07 21:58:00,78.5,65.0,29.91,SSW,198,0.0,3.0,63,0.00,,,0.00,weatherlink.com 1.10,2013-09-08 02:58:00,
2013-09-07 22:13:00,78.1,66.0,29.91,SW,225,1.0,3.0,66,0.00,,,0.00,weatherlink.com 1.10,2013-09-08 03:13:00,
2013-09-07 22:28:00,77.6,66.0,29.91,SW,223,2.0,3.0,67,0.00,,,0.00,weatherlink.com 1.10,2013-09-08 03:28:00,
2013-09-07 22:43:00,77.0,66.0,29.91,West,261,1.0,3.0,68,0.00,,,0.00,weatherlink.com 1.10,2013-09-08 03:43:00,
2013-09-07 22:58:00,76.8,66.0,29.91,West,261,0.0,0.0,70,0.00,,,0.00,weatherlink.com 1.10,2013-09-08 03:58:00,
2013-09-07 23:14:00,76.7,66.0,29.92,SW,234,0.0,0.0,69,0.00,,,0.00,weatherlink.com 1.10,2013-09-08 04:14:00,
2013-09-07 23:29:00,75.4,65.0,29.92,SE,138,3.0,3.0,71,0.00,,,0.00,weatherlink.com 1.10,2013-09-08 04:29:00,
2013-09-07 23:43:00,74.4,65.0,29.92,SE,132,1.0,3.0,73,0.00,,,0.00,weatherlink.com 1.10,2013-09-08 04:43:00,
2013-09-07 23:59:00,73.9,66.0,29.92,SE,132,1.0,2.0,75,0.00,,,0.00,weatherlink.com 1.10,2013-09-08 04:59:00,